sensor_id;sensor_type;location;lat;lon;timestamp;P1;durP1;ratioP1;P2;durP2;ratioP2
70715;SDS011;59053;50.832;12.882;2023-02-13T00:04:55;130.43;;;19.20;;
70715;SDS011;59053;50.832;12.882;2023-02-13T00:07:22;134.77;;;19.02;;
70715;SDS011;59053;50.832;12.882;2023-02-13T00:09:49;132.97;;;19.53;;
70715;SDS011;59053;50.832;12.882;2023-02-13T00:12:16;124.35;;;18.55;;
70715;SDS011;59053;50.832;12.882;2023-02-13T00:14:43;136.25;;;18.25;;
70715;SDS011;59053;50.832;12.882;2023-02-13T00:17:17;139.93;;;18.70;;
70715;SDS011;59053;50.832;12.882;2023-02-13T00:19:50;132.97;;;18.57;;
70715;SDS011;59053;50.832;12.882;2023-02-13T00:22:35;125.55;;;18.23;;
70715;SDS011;59053;50.832;12.882;2023-02-13T00:58:52;132.38;;;19.55;;
70715;SDS011;59053;50.832;12.882;2023-02-13T01:01:18;144.65;;;20.17;;
70715;SDS011;59053;50.832;12.882;2023-02-13T01:03:45;159.35;;;20.80;;
70715;SDS011;59053;50.832;12.882;2023-02-13T01:06:27;154.50;;;20.65;;
70715;SDS011;59053;50.832;12.882;2023-02-13T01:09:07;151.97;;;20.40;;
70715;SDS011;59053;50.832;12.882;2023-02-13T01:11:42;161.67;;;19.83;;
70715;SDS011;59053;50.832;12.882;2023-02-13T01:14:41;155.80;;;20.25;;
70715;SDS011;59053;50.832;12.882;2023-02-13T01:17:13;167.82;;;22.00;;
70715;SDS011;59053;50.832;12.882;2023-02-13T01:19:46;150.80;;;19.42;;
70715;SDS011;59053;50.832;12.882;2023-02-13T03:24:01;104.03;;;17.58;;
70715;SDS011;59053;50.832;12.882;2023-02-13T03:34:06;93.05;;;16.70;;
70715;SDS011;59053;50.832;12.882;2023-02-13T03:37:01;82.77;;;15.47;;
70715;SDS011;59053;50.832;12.882;2023-02-13T03:48:04;79.55;;;14.95;;
70715;SDS011;59053;50.832;12.882;2023-02-13T04:08:11;84.00;;;15.65;;
70715;SDS011;59053;50.832;12.882;2023-02-13T04:10:57;82.97;;;15.80;;
70715;SDS011;59053;50.832;12.882;2023-02-13T04:14:44;71.72;;;14.80;;
70715;SDS011;59053;50.832;12.882;2023-02-13T04:21:31;76.45;;;15.30;;
70715;SDS011;59053;50.832;12.882;2023-02-13T04:24:10;81.65;;;16.10;;
70715;SDS011;59053;50.832;12.882;2023-02-13T04:29:47;74.47;;;15.25;;
70715;SDS011;59053;50.832;12.882;2023-02-13T04:32:39;78.82;;;15.48;;
70715;SDS011;59053;50.832;12.882;2023-02-13T04:43:16;62.83;;;14.57;;
70715;SDS011;59053;50.832;12.882;2023-02-13T04:46:08;71.70;;;15.45;;
70715;SDS011;59053;50.832;12.882;2023-02-13T04:48:38;71.13;;;14.82;;
70715;SDS011;59053;50.832;12.882;2023-02-13T04:54:27;76.57;;;15.73;;
70715;SDS011;59053;50.832;12.882;2023-02-13T04:57:33;81.83;;;15.73;;
70715;SDS011;59053;50.832;12.882;2023-02-13T05:12:14;83.47;;;16.52;;
70715;SDS011;59053;50.832;12.882;2023-02-13T07:00:26;117.03;;;17.35;;
70715;SDS011;59053;50.832;12.882;2023-02-13T11:40:43;26.60;;;8.97;;
70715;SDS011;59053;50.832;12.882;2023-02-13T11:56:08;22.73;;;8.93;;
70715;SDS011;59053;50.832;12.882;2023-02-13T12:01:31;24.60;;;9.15;;
70715;SDS011;59053;50.832;12.882;2023-02-13T12:10:24;25.43;;;8.57;;
70715;SDS011;59053;50.832;12.882;2023-02-13T12:12:55;23.40;;;9.00;;
70715;SDS011;59053;50.832;12.882;2023-02-13T12:15:29;21.42;;;8.10;;
70715;SDS011;59053;50.832;12.882;2023-02-13T12:18:29;23.20;;;8.45;;
70715;SDS011;59053;50.832;12.882;2023-02-13T12:42:55;18.48;;;7.10;;
70715;SDS011;59053;50.832;12.882;2023-02-13T13:00:49;20.10;;;8.45;;
70715;SDS011;59053;50.832;12.882;2023-02-13T13:12:47;16.83;;;7.38;;
70715;SDS011;59053;50.832;12.882;2023-02-13T13:16:30;9.05;;;3.53;;
70715;SDS011;59053;50.832;12.882;2023-02-13T13:22:20;12.50;;;4.82;;
70715;SDS011;59053;50.832;12.882;2023-02-13T13:30:48;13.88;;;4.53;;
70715;SDS011;59053;50.832;12.882;2023-02-13T13:33:16;14.63;;;6.27;;
70715;SDS011;59053;50.832;12.882;2023-02-13T13:38:56;15.95;;;6.22;;
70715;SDS011;59053;50.832;12.882;2023-02-13T13:41:37;18.48;;;6.55;;
70715;SDS011;59053;50.832;12.882;2023-02-13T13:44:18;18.00;;;6.77;;
70715;SDS011;59053;50.832;12.882;2023-02-13T13:57:05;15.38;;;6.15;;
70715;SDS011;59053;50.832;12.882;2023-02-13T14:05:20;16.63;;;6.55;;
70715;SDS011;59053;50.832;12.882;2023-02-13T14:13:56;18.00;;;7.03;;
70715;SDS011;59053;50.832;12.882;2023-02-13T14:24:50;17.98;;;7.18;;
70715;SDS011;59053;50.832;12.882;2023-02-13T14:27:19;17.17;;;6.20;;
70715;SDS011;59053;50.832;12.882;2023-02-13T14:29:58;17.55;;;6.30;;
70715;SDS011;59053;50.832;12.882;2023-02-13T14:32:33;18.85;;;7.32;;
70715;SDS011;59053;50.832;12.882;2023-02-13T14:35:23;11.73;;;4.75;;
70715;SDS011;59053;50.832;12.882;2023-02-13T14:37:55;18.60;;;7.85;;
70715;SDS011;59053;50.832;12.882;2023-02-13T14:48:55;19.63;;;7.53;;
70715;SDS011;59053;50.832;12.882;2023-02-13T14:51:37;17.55;;;6.57;;
70715;SDS011;59053;50.832;12.882;2023-02-13T14:57:18;21.88;;;7.97;;
70715;SDS011;59053;50.832;12.882;2023-02-13T14:59:48;19.02;;;7.13;;
70715;SDS011;59053;50.832;12.882;2023-02-13T15:05:05;19.30;;;8.20;;
70715;SDS011;59053;50.832;12.882;2023-02-13T15:07:35;20.73;;;8.07;;
70715;SDS011;59053;50.832;12.882;2023-02-13T15:10:22;19.88;;;7.75;;
70715;SDS011;59053;50.832;12.882;2023-02-13T15:15:43;20.55;;;8.48;;
70715;SDS011;59053;50.832;12.882;2023-02-13T15:18:18;20.75;;;8.02;;
70715;SDS011;59053;50.832;12.882;2023-02-13T15:20:45;22.70;;;8.50;;
70715;SDS011;59053;50.832;12.882;2023-02-13T15:23:24;21.75;;;8.52;;
70715;SDS011;59053;50.832;12.882;2023-02-13T15:25:58;25.17;;;8.95;;
70715;SDS011;59053;50.832;12.882;2023-02-13T15:28:25;20.77;;;8.60;;
70715;SDS011;59053;50.832;12.882;2023-02-13T15:30:57;22.30;;;8.47;;
70715;SDS011;59053;50.832;12.882;2023-02-13T15:33:25;24.85;;;9.18;;
70715;SDS011;59053;50.832;12.882;2023-02-13T15:35:58;24.30;;;9.60;;
70715;SDS011;59053;50.832;12.882;2023-02-13T15:41:08;20.38;;;8.02;;
70715;SDS011;59053;50.832;12.882;2023-02-13T15:46:26;21.85;;;8.32;;
70715;SDS011;59053;50.832;12.882;2023-02-13T15:49:31;22.05;;;8.52;;
70715;SDS011;59053;50.832;12.882;2023-02-13T15:52:17;24.25;;;9.63;;
70715;SDS011;59053;50.832;12.882;2023-02-13T15:54:51;26.60;;;9.35;;
70715;SDS011;59053;50.832;12.882;2023-02-13T15:57:29;25.33;;;9.67;;
70715;SDS011;59053;50.832;12.882;2023-02-13T16:00:00;28.25;;;10.52;;
70715;SDS011;59053;50.832;12.882;2023-02-13T16:02:54;25.55;;;9.88;;
70715;SDS011;59053;50.832;12.882;2023-02-13T16:12:51;27.47;;;9.70;;
70715;SDS011;59053;50.832;12.882;2023-02-13T16:22:17;28.73;;;9.88;;
70715;SDS011;59053;50.832;12.882;2023-02-13T16:52:03;31.60;;;9.93;;
70715;SDS011;59053;50.832;12.882;2023-02-13T16:55:40;31.65;;;10.95;;
70715;SDS011;59053;50.832;12.882;2023-02-13T17:03:42;33.58;;;11.10;;
70715;SDS011;59053;50.832;12.882;2023-02-13T17:06:07;35.20;;;11.67;;
70715;SDS011;59053;50.832;12.882;2023-02-13T17:08:51;29.50;;;10.80;;
70715;SDS011;59053;50.832;12.882;2023-02-13T17:11:37;31.48;;;10.88;;
70715;SDS011;59053;50.832;12.882;2023-02-13T17:14:03;33.13;;;11.55;;
70715;SDS011;59053;50.832;12.882;2023-02-13T17:16:31;32.40;;;10.97;;
70715;SDS011;59053;50.832;12.882;2023-02-13T17:30:57;32.97;;;11.63;;
70715;SDS011;59053;50.832;12.882;2023-02-13T17:33:28;36.10;;;11.68;;
70715;SDS011;59053;50.832;12.882;2023-02-13T17:39:37;35.97;;;12.10;;
70715;SDS011;59053;50.832;12.882;2023-02-13T17:45:42;37.20;;;12.90;;
70715;SDS011;59053;50.832;12.882;2023-02-13T17:48:16;39.53;;;12.93;;
70715;SDS011;59053;50.832;12.882;2023-02-13T17:51:00;39.13;;;12.60;;
70715;SDS011;59053;50.832;12.882;2023-02-13T17:53:26;37.53;;;12.37;;
70715;SDS011;59053;50.832;12.882;2023-02-13T17:55:57;35.13;;;13.20;;
70715;SDS011;59053;50.832;12.882;2023-02-13T17:58:23;40.50;;;13.67;;
70715;SDS011;59053;50.832;12.882;2023-02-13T18:01:00;38.15;;;13.40;;
70715;SDS011;59053;50.832;12.882;2023-02-13T18:03:25;43.92;;;12.88;;
70715;SDS011;59053;50.832;12.882;2023-02-13T18:05:51;40.17;;;12.90;;
70715;SDS011;59053;50.832;12.882;2023-02-13T18:08:16;40.10;;;13.23;;
70715;SDS011;59053;50.832;12.882;2023-02-13T18:10:43;39.15;;;13.52;;
70715;SDS011;59053;50.832;12.882;2023-02-13T18:13:11;40.50;;;13.17;;
70715;SDS011;59053;50.832;12.882;2023-02-13T18:15:47;44.53;;;13.60;;
70715;SDS011;59053;50.832;12.882;2023-02-13T18:33:03;42.75;;;13.65;;
70715;SDS011;59053;50.832;12.882;2023-02-13T18:39:03;47.50;;;14.80;;
70715;SDS011;59053;50.832;12.882;2023-02-13T18:45:26;56.17;;;17.60;;
70715;SDS011;59053;50.832;12.882;2023-02-13T18:48:00;53.05;;;15.57;;
70715;SDS011;59053;50.832;12.882;2023-02-13T18:50:40;54.42;;;16.75;;
70715;SDS011;59053;50.832;12.882;2023-02-13T18:53:06;58.20;;;17.85;;
70715;SDS011;59053;50.832;12.882;2023-02-13T18:55:45;62.22;;;17.55;;
70715;SDS011;59053;50.832;12.882;2023-02-13T18:58:27;66.13;;;18.17;;
70715;SDS011;59053;50.832;12.882;2023-02-13T19:00:53;58.40;;;16.83;;
70715;SDS011;59053;50.832;12.882;2023-02-13T19:07:17;59.45;;;16.00;;
70715;SDS011;59053;50.832;12.882;2023-02-13T19:09:59;70.07;;;19.42;;
70715;SDS011;59053;50.832;12.882;2023-02-13T19:12:27;89.82;;;26.52;;
70715;SDS011;59053;50.832;12.882;2023-02-13T19:20:57;64.25;;;15.77;;
70715;SDS011;59053;50.832;12.882;2023-02-13T19:23:27;74.13;;;22.02;;
70715;SDS011;59053;50.832;12.882;2023-02-13T19:26:08;72.22;;;20.08;;
70715;SDS011;59053;50.832;12.882;2023-02-13T19:28:37;72.00;;;17.40;;
70715;SDS011;59053;50.832;12.882;2023-02-13T19:33:32;75.18;;;17.90;;
70715;SDS011;59053;50.832;12.882;2023-02-13T19:35:58;76.13;;;17.02;;
70715;SDS011;59053;50.832;12.882;2023-02-13T19:38:27;83.37;;;20.23;;
70715;SDS011;59053;50.832;12.882;2023-02-13T19:40:55;81.70;;;18.83;;
70715;SDS011;59053;50.832;12.882;2023-02-13T19:43:23;79.85;;;18.15;;
70715;SDS011;59053;50.832;12.882;2023-02-13T19:45:52;79.88;;;17.77;;
70715;SDS011;59053;50.832;12.882;2023-02-13T19:48:18;90.20;;;19.57;;
70715;SDS011;59053;50.832;12.882;2023-02-13T19:50:50;91.95;;;19.02;;
70715;SDS011;59053;50.832;12.882;2023-02-13T19:53:30;78.57;;;17.52;;
70715;SDS011;59053;50.832;12.882;2023-02-13T19:56:00;82.73;;;18.03;;
70715;SDS011;59053;50.832;12.882;2023-02-13T19:58:29;83.28;;;18.50;;
70715;SDS011;59053;50.832;12.882;2023-02-13T20:00:55;82.63;;;18.00;;
70715;SDS011;59053;50.832;12.882;2023-02-13T20:03:20;94.67;;;19.17;;
70715;SDS011;59053;50.832;12.882;2023-02-13T20:05:47;86.63;;;18.47;;
70715;SDS011;59053;50.832;12.882;2023-02-13T20:08:18;76.82;;;17.30;;
70715;SDS011;59053;50.832;12.882;2023-02-13T20:11:00;79.22;;;18.05;;
70715;SDS011;59053;50.832;12.882;2023-02-13T20:13:28;65.38;;;15.73;;
70715;SDS011;59053;50.832;12.882;2023-02-13T20:15:57;64.22;;;16.45;;
70715;SDS011;59053;50.832;12.882;2023-02-13T20:18:22;64.33;;;15.57;;
70715;SDS011;59053;50.832;12.882;2023-02-13T20:20:48;69.65;;;17.17;;
70715;SDS011;59053;50.832;12.882;2023-02-13T20:23:23;57.55;;;15.35;;
70715;SDS011;59053;50.832;12.882;2023-02-13T20:25:48;61.23;;;16.13;;
70715;SDS011;59053;50.832;12.882;2023-02-13T20:28:14;62.47;;;15.93;;
70715;SDS011;59053;50.832;12.882;2023-02-13T20:30:40;55.87;;;14.80;;
70715;SDS011;59053;50.832;12.882;2023-02-13T20:33:06;54.47;;;14.95;;
70715;SDS011;59053;50.832;12.882;2023-02-13T20:35:32;54.30;;;15.48;;
70715;SDS011;59053;50.832;12.882;2023-02-13T20:37:57;48.67;;;13.73;;
70715;SDS011;59053;50.832;12.882;2023-02-13T20:43:51;52.58;;;13.88;;
70715;SDS011;59053;50.832;12.882;2023-02-13T20:46:33;56.38;;;13.68;;
70715;SDS011;59053;50.832;12.882;2023-02-13T20:49:00;56.58;;;14.32;;
70715;SDS011;59053;50.832;12.882;2023-02-13T20:51:27;52.87;;;14.50;;
70715;SDS011;59053;50.832;12.882;2023-02-13T20:53:52;55.25;;;14.95;;
70715;SDS011;59053;50.832;12.882;2023-02-13T20:56:20;50.63;;;14.13;;
70715;SDS011;59053;50.832;12.882;2023-02-13T20:58:47;60.38;;;15.68;;
70715;SDS011;59053;50.832;12.882;2023-02-13T21:01:32;58.05;;;14.88;;
70715;SDS011;59053;50.832;12.882;2023-02-13T21:04:15;57.50;;;14.95;;
70715;SDS011;59053;50.832;12.882;2023-02-13T21:09:53;61.93;;;14.93;;
70715;SDS011;59053;50.832;12.882;2023-02-13T21:12:18;66.53;;;15.85;;
70715;SDS011;59053;50.832;12.882;2023-02-13T21:14:44;62.10;;;16.10;;
70715;SDS011;59053;50.832;12.882;2023-02-13T21:17:10;62.30;;;15.45;;
70715;SDS011;59053;50.832;12.882;2023-02-13T21:19:35;67.20;;;15.67;;
70715;SDS011;59053;50.832;12.882;2023-02-13T21:22:01;63.50;;;15.30;;
70715;SDS011;59053;50.832;12.882;2023-02-13T21:24:36;60.58;;;15.43;;
70715;SDS011;59053;50.832;12.882;2023-02-13T21:27:02;67.67;;;15.60;;
70715;SDS011;59053;50.832;12.882;2023-02-13T21:29:29;54.45;;;13.55;;
70715;SDS011;59053;50.832;12.882;2023-02-13T21:31:55;56.50;;;14.30;;
70715;SDS011;59053;50.832;12.882;2023-02-13T21:34:29;48.28;;;12.80;;
70715;SDS011;59053;50.832;12.882;2023-02-13T21:36:55;45.20;;;13.30;;
70715;SDS011;59053;50.832;12.882;2023-02-13T21:39:21;45.28;;;12.68;;
70715;SDS011;59053;50.832;12.882;2023-02-13T21:41:49;44.75;;;12.52;;
70715;SDS011;59053;50.832;12.882;2023-02-13T21:47:58;42.88;;;12.48;;
70715;SDS011;59053;50.832;12.882;2023-02-13T21:50:24;45.37;;;12.83;;
70715;SDS011;59053;50.832;12.882;2023-02-13T21:52:52;43.47;;;13.67;;
70715;SDS011;59053;50.832;12.882;2023-02-13T21:55:21;44.97;;;13.27;;
70715;SDS011;59053;50.832;12.882;2023-02-13T22:00:52;47.08;;;12.52;;
70715;SDS011;59053;50.832;12.882;2023-02-13T22:03:17;49.27;;;13.30;;
70715;SDS011;59053;50.832;12.882;2023-02-13T22:06:01;47.43;;;13.57;;
70715;SDS011;59053;50.832;12.882;2023-02-13T22:08:26;44.88;;;12.32;;
70715;SDS011;59053;50.832;12.882;2023-02-13T22:10:55;51.35;;;12.63;;
70715;SDS011;59053;50.832;12.882;2023-02-13T22:13:31;50.90;;;13.43;;
70715;SDS011;59053;50.832;12.882;2023-02-13T22:16:08;43.17;;;12.80;;
70715;SDS011;59053;50.832;12.882;2023-02-13T22:18:35;47.25;;;13.20;;
70715;SDS011;59053;50.832;12.882;2023-02-13T22:23:49;44.80;;;12.57;;
70715;SDS011;59053;50.832;12.882;2023-02-13T22:26:16;44.23;;;13.43;;
70715;SDS011;59053;50.832;12.882;2023-02-13T22:28:46;45.53;;;13.30;;
70715;SDS011;59053;50.832;12.882;2023-02-13T22:31:12;49.08;;;13.80;;
70715;SDS011;59053;50.832;12.882;2023-02-13T22:33:38;48.70;;;13.18;;
70715;SDS011;59053;50.832;12.882;2023-02-13T22:36:06;50.23;;;14.03;;
70715;SDS011;59053;50.832;12.882;2023-02-13T22:38:32;42.87;;;12.67;;
70715;SDS011;59053;50.832;12.882;2023-02-13T22:44:01;44.63;;;12.48;;
70715;SDS011;59053;50.832;12.882;2023-02-13T22:46:28;45.63;;;12.95;;
70715;SDS011;59053;50.832;12.882;2023-02-13T22:48:55;37.63;;;11.77;;
70715;SDS011;59053;50.832;12.882;2023-02-13T23:13:26;45.63;;;12.65;;
70715;SDS011;59053;50.832;12.882;2023-02-13T23:16:10;50.90;;;13.40;;
70715;SDS011;59053;50.832;12.882;2023-02-13T23:21:48;51.47;;;13.63;;
70715;SDS011;59053;50.832;12.882;2023-02-13T23:24:15;57.10;;;13.87;;
70715;SDS011;59053;50.832;12.882;2023-02-13T23:27:03;48.83;;;13.40;;
70715;SDS011;59053;50.832;12.882;2023-02-13T23:29:41;53.00;;;14.40;;
70715;SDS011;59053;50.832;12.882;2023-02-13T23:32:06;48.42;;;12.75;;
70715;SDS011;59053;50.832;12.882;2023-02-13T23:41:20;44.05;;;12.25;;
70715;SDS011;59053;50.832;12.882;2023-02-13T23:44:13;47.35;;;12.68;;
70715;SDS011;59053;50.832;12.882;2023-02-13T23:46:39;42.60;;;12.65;;
70715;SDS011;59053;50.832;12.882;2023-02-13T23:49:18;42.30;;;11.97;;
70715;SDS011;59053;50.832;12.882;2023-02-13T23:51:49;50.90;;;12.73;;
70715;SDS011;59053;50.832;12.882;2023-02-13T23:54:24;49.28;;;13.23;;
70715;SDS011;59053;50.832;12.882;2023-02-13T23:56:54;51.35;;;13.30;;
